sensor_id;sensor_type;location;lat;lon;timestamp;P1;durP1;ratioP1;P2;durP2;ratioP2
5710;SDS011;61291;52.524;13.422;2023-12-14T00:02:15;73.73;;;68.23;;
5710;SDS011;61291;52.524;13.422;2023-12-14T00:04:40;66.50;;;61.10;;
5710;SDS011;61291;52.524;13.422;2023-12-14T00:07:06;69.43;;;64.53;;
5710;SDS011;61291;52.524;13.422;2023-12-14T00:09:31;63.27;;;58.50;;
5710;SDS011;61291;52.524;13.422;2023-12-14T00:11:57;66.77;;;61.40;;
5710;SDS011;61291;52.524;13.422;2023-12-14T00:14:22;65.10;;;60.60;;
5710;SDS011;61291;52.524;13.422;2023-12-14T00:16:48;62.07;;;57.80;;
5710;SDS011;61291;52.524;13.422;2023-12-14T00:19:14;70.70;;;65.00;;
5710;SDS011;61291;52.524;13.422;2023-12-14T00:21:40;67.87;;;62.00;;
5710;SDS011;61291;52.524;13.422;2023-12-14T00:24:06;68.00;;;63.43;;
5710;SDS011;61291;52.524;13.422;2023-12-14T00:26:31;67.23;;;61.77;;
5710;SDS011;61291;52.524;13.422;2023-12-14T00:28:57;61.23;;;57.40;;
5710;SDS011;61291;52.524;13.422;2023-12-14T00:31:22;62.20;;;58.20;;
5710;SDS011;61291;52.524;13.422;2023-12-14T00:33:48;63.80;;;59.20;;
5710;SDS011;61291;52.524;13.422;2023-12-14T00:36:17;64.63;;;60.43;;
5710;SDS011;61291;52.524;13.422;2023-12-14T00:38:43;58.63;;;55.03;;
5710;SDS011;61291;52.524;13.422;2023-12-14T00:41:08;66.87;;;61.47;;
5710;SDS011;61291;52.524;13.422;2023-12-14T00:43:34;67.93;;;63.20;;
5710;SDS011;61291;52.524;13.422;2023-12-14T00:46:01;66.23;;;61.23;;
5710;SDS011;61291;52.524;13.422;2023-12-14T00:48:27;66.90;;;62.10;;
5710;SDS011;61291;52.524;13.422;2023-12-14T00:50:53;63.80;;;59.70;;
5710;SDS011;61291;52.524;13.422;2023-12-14T00:53:18;73.77;;;68.53;;
5710;SDS011;61291;52.524;13.422;2023-12-14T00:55:44;75.67;;;70.13;;
5710;SDS011;61291;52.524;13.422;2023-12-14T00:58:10;75.23;;;69.40;;
5710;SDS011;61291;52.524;13.422;2023-12-14T01:00:37;64.10;;;59.50;;
5710;SDS011;61291;52.524;13.422;2023-12-14T01:03:03;76.33;;;71.10;;
5710;SDS011;61291;52.524;13.422;2023-12-14T01:05:29;80.57;;;74.73;;
5710;SDS011;61291;52.524;13.422;2023-12-14T01:07:54;78.93;;;73.13;;
5710;SDS011;61291;52.524;13.422;2023-12-14T01:10:20;76.70;;;69.90;;
5710;SDS011;61291;52.524;13.422;2023-12-14T01:12:45;76.40;;;70.80;;
5710;SDS011;61291;52.524;13.422;2023-12-14T01:15:11;77.57;;;72.13;;
5710;SDS011;61291;52.524;13.422;2023-12-14T01:17:36;75.10;;;70.27;;
5710;SDS011;61291;52.524;13.422;2023-12-14T01:20:05;80.40;;;74.07;;
5710;SDS011;61291;52.524;13.422;2023-12-14T01:22:32;80.10;;;74.43;;
5710;SDS011;61291;52.524;13.422;2023-12-14T01:24:58;81.60;;;75.90;;
5710;SDS011;61291;52.524;13.422;2023-12-14T01:27:24;80.27;;;73.97;;
5710;SDS011;61291;52.524;13.422;2023-12-14T01:29:50;82.20;;;76.20;;
5710;SDS011;61291;52.524;13.422;2023-12-14T01:32:15;81.07;;;75.23;;
5710;SDS011;61291;52.524;13.422;2023-12-14T01:34:41;77.57;;;72.37;;
5710;SDS011;61291;52.524;13.422;2023-12-14T01:37:06;82.60;;;76.30;;
5710;SDS011;61291;52.524;13.422;2023-12-14T01:39:32;79.03;;;73.13;;
5710;SDS011;61291;52.524;13.422;2023-12-14T01:41:57;80.00;;;74.23;;
5710;SDS011;61291;52.524;13.422;2023-12-14T01:44:23;76.50;;;71.60;;
5710;SDS011;61291;52.524;13.422;2023-12-14T01:46:49;79.33;;;74.13;;
5710;SDS011;61291;52.524;13.422;2023-12-14T01:49:14;75.40;;;70.70;;
5710;SDS011;61291;52.524;13.422;2023-12-14T01:51:40;78.67;;;73.50;;
5710;SDS011;61291;52.524;13.422;2023-12-14T01:54:05;81.30;;;75.90;;
5710;SDS011;61291;52.524;13.422;2023-12-14T01:56:31;78.13;;;73.30;;
5710;SDS011;61291;52.524;13.422;2023-12-14T01:58:56;85.10;;;78.60;;
5710;SDS011;61291;52.524;13.422;2023-12-14T02:04:06;80.50;;;74.97;;
5710;SDS011;61291;52.524;13.422;2023-12-14T02:06:32;84.07;;;78.33;;
5710;SDS011;61291;52.524;13.422;2023-12-14T02:08:58;78.37;;;73.20;;
5710;SDS011;61291;52.524;13.422;2023-12-14T02:11:23;59.03;;;55.53;;
5710;SDS011;61291;52.524;13.422;2023-12-14T02:13:49;78.90;;;74.10;;
5710;SDS011;61291;52.524;13.422;2023-12-14T02:16:14;79.10;;;74.40;;
5710;SDS011;61291;52.524;13.422;2023-12-14T02:18:40;78.93;;;74.23;;
5710;SDS011;61291;52.524;13.422;2023-12-14T02:21:05;76.60;;;71.97;;
5710;SDS011;61291;52.524;13.422;2023-12-14T02:23:31;76.13;;;71.43;;
5710;SDS011;61291;52.524;13.422;2023-12-14T02:25:56;75.80;;;71.30;;
5710;SDS011;61291;52.524;13.422;2023-12-14T02:28:22;77.80;;;73.20;;
5710;SDS011;61291;52.524;13.422;2023-12-14T02:30:47;70.30;;;66.00;;
5710;SDS011;61291;52.524;13.422;2023-12-14T02:33:13;66.97;;;63.07;;
5710;SDS011;61291;52.524;13.422;2023-12-14T02:35:38;75.90;;;71.40;;
5710;SDS011;61291;52.524;13.422;2023-12-14T02:38:04;72.57;;;68.27;;
5710;SDS011;61291;52.524;13.422;2023-12-14T02:40:29;70.77;;;66.67;;
5710;SDS011;61291;52.524;13.422;2023-12-14T02:42:55;76.10;;;71.70;;
5710;SDS011;61291;52.524;13.422;2023-12-14T02:45:20;77.30;;;70.97;;
5710;SDS011;61291;52.524;13.422;2023-12-14T02:47:46;65.77;;;61.87;;
5710;SDS011;61291;52.524;13.422;2023-12-14T02:50:13;70.03;;;65.93;;
5710;SDS011;61291;52.524;13.422;2023-12-14T02:52:38;69.80;;;65.60;;
5710;SDS011;61291;52.524;13.422;2023-12-14T02:55:04;67.53;;;63.53;;
5710;SDS011;61291;52.524;13.422;2023-12-14T02:57:30;72.20;;;67.90;;
5710;SDS011;61291;52.524;13.422;2023-12-14T02:59:55;71.37;;;67.00;;
5710;SDS011;61291;52.524;13.422;2023-12-14T03:02:21;69.43;;;65.23;;
5710;SDS011;61291;52.524;13.422;2023-12-14T03:04:47;70.40;;;66.00;;
5710;SDS011;61291;52.524;13.422;2023-12-14T03:07:12;67.63;;;63.60;;
5710;SDS011;61291;52.524;13.422;2023-12-14T03:09:41;78.10;;;72.90;;
5710;SDS011;61291;52.524;13.422;2023-12-14T03:12:09;73.00;;;68.60;;
5710;SDS011;61291;52.524;13.422;2023-12-14T03:14:34;75.27;;;70.17;;
5710;SDS011;61291;52.524;13.422;2023-12-14T03:17:00;68.13;;;64.03;;
5710;SDS011;61291;52.524;13.422;2023-12-14T03:19:25;70.03;;;65.73;;
5710;SDS011;61291;52.524;13.422;2023-12-14T03:21:51;70.93;;;66.53;;
5710;SDS011;61291;52.524;13.422;2023-12-14T03:24:17;72.00;;;67.23;;
5710;SDS011;61291;52.524;13.422;2023-12-14T03:26:42;72.00;;;67.37;;
5710;SDS011;61291;52.524;13.422;2023-12-14T03:29:08;69.83;;;65.63;;
5710;SDS011;61291;52.524;13.422;2023-12-14T03:31:33;70.17;;;65.97;;
5710;SDS011;61291;52.524;13.422;2023-12-14T03:34:00;70.50;;;66.33;;
5710;SDS011;61291;52.524;13.422;2023-12-14T03:36:25;69.70;;;65.60;;
5710;SDS011;61291;52.524;13.422;2023-12-14T03:38:52;71.00;;;66.70;;
5710;SDS011;61291;52.524;13.422;2023-12-14T03:41:18;69.03;;;64.73;;
5710;SDS011;61291;52.524;13.422;2023-12-14T03:43:43;68.20;;;64.10;;
5710;SDS011;61291;52.524;13.422;2023-12-14T03:46:09;65.97;;;62.03;;
5710;SDS011;61291;52.524;13.422;2023-12-14T03:48:35;69.60;;;65.40;;
5710;SDS011;61291;52.524;13.422;2023-12-14T03:51:03;70.90;;;66.70;;
5710;SDS011;61291;52.524;13.422;2023-12-14T03:53:29;69.10;;;64.80;;
5710;SDS011;61291;52.524;13.422;2023-12-14T03:55:55;70.60;;;66.30;;
5710;SDS011;61291;52.524;13.422;2023-12-14T03:58:22;70.93;;;66.80;;
5710;SDS011;61291;52.524;13.422;2023-12-14T04:00:47;65.90;;;62.00;;
5710;SDS011;61291;52.524;13.422;2023-12-14T04:03:13;71.00;;;66.50;;
5710;SDS011;61291;52.524;13.422;2023-12-14T04:05:38;66.40;;;62.43;;
5710;SDS011;61291;52.524;13.422;2023-12-14T04:08:04;70.40;;;66.20;;
5710;SDS011;61291;52.524;13.422;2023-12-14T04:10:30;69.00;;;64.80;;
5710;SDS011;61291;52.524;13.422;2023-12-14T04:12:55;68.07;;;63.93;;
5710;SDS011;61291;52.524;13.422;2023-12-14T04:15:21;71.43;;;67.13;;
5710;SDS011;61291;52.524;13.422;2023-12-14T04:17:46;69.93;;;65.70;;
5710;SDS011;61291;52.524;13.422;2023-12-14T04:20:12;71.60;;;66.90;;
5710;SDS011;61291;52.524;13.422;2023-12-14T04:22:40;69.23;;;64.93;;
5710;SDS011;61291;52.524;13.422;2023-12-14T04:25:06;67.30;;;63.20;;
5710;SDS011;61291;52.524;13.422;2023-12-14T04:27:32;69.93;;;65.63;;
5710;SDS011;61291;52.524;13.422;2023-12-14T04:29:58;68.07;;;63.97;;
5710;SDS011;61291;52.524;13.422;2023-12-14T04:32:23;66.03;;;62.07;;
5710;SDS011;61291;52.524;13.422;2023-12-14T04:34:49;65.90;;;61.90;;
5710;SDS011;61291;52.524;13.422;2023-12-14T04:37:14;68.97;;;64.70;;
5710;SDS011;61291;52.524;13.422;2023-12-14T04:39:40;67.30;;;63.20;;
5710;SDS011;61291;52.524;13.422;2023-12-14T04:42:05;68.80;;;64.60;;
5710;SDS011;61291;52.524;13.422;2023-12-14T04:44:31;74.40;;;68.67;;
5710;SDS011;61291;52.524;13.422;2023-12-14T04:46:56;66.30;;;62.27;;
5710;SDS011;61291;52.524;13.422;2023-12-14T04:49:22;70.13;;;65.83;;
5710;SDS011;61291;52.524;13.422;2023-12-14T04:51:47;68.17;;;63.97;;
5710;SDS011;61291;52.524;13.422;2023-12-14T04:54:13;70.80;;;66.40;;
5710;SDS011;61291;52.524;13.422;2023-12-14T04:56:38;70.17;;;65.73;;
5710;SDS011;61291;52.524;13.422;2023-12-14T04:59:04;75.13;;;70.43;;
5710;SDS011;61291;52.524;13.422;2023-12-14T05:01:29;66.63;;;62.10;;
5710;SDS011;61291;52.524;13.422;2023-12-14T05:03:55;71.73;;;67.33;;
5710;SDS011;61291;52.524;13.422;2023-12-14T05:06:20;75.83;;;71.13;;
5710;SDS011;61291;52.524;13.422;2023-12-14T05:08:46;79.60;;;74.50;;
5710;SDS011;61291;52.524;13.422;2023-12-14T05:11:12;73.10;;;68.47;;
5710;SDS011;61291;52.524;13.422;2023-12-14T05:13:38;76.43;;;71.60;;
5710;SDS011;61291;52.524;13.422;2023-12-14T05:16:03;75.57;;;70.77;;
5710;SDS011;61291;52.524;13.422;2023-12-14T05:18:29;73.90;;;69.20;;
5710;SDS011;61291;52.524;13.422;2023-12-14T05:20:54;70.90;;;65.77;;
5710;SDS011;61291;52.524;13.422;2023-12-14T05:23:20;70.27;;;65.27;;
5710;SDS011;61291;52.524;13.422;2023-12-14T05:25:45;70.80;;;66.27;;
5710;SDS011;61291;52.524;13.422;2023-12-14T05:28:11;77.20;;;72.20;;
5710;SDS011;61291;52.524;13.422;2023-12-14T05:30:36;77.60;;;72.77;;
5710;SDS011;61291;52.524;13.422;2023-12-14T05:33:02;84.03;;;78.73;;
5710;SDS011;61291;52.524;13.422;2023-12-14T05:35:27;87.10;;;81.67;;
5710;SDS011;61291;52.524;13.422;2023-12-14T05:37:53;87.50;;;81.90;;
5710;SDS011;61291;52.524;13.422;2023-12-14T05:40:18;71.17;;;66.43;;
5710;SDS011;61291;52.524;13.422;2023-12-14T05:42:44;78.27;;;73.07;;
5710;SDS011;61291;52.524;13.422;2023-12-14T05:45:10;82.30;;;75.90;;
5710;SDS011;61291;52.524;13.422;2023-12-14T05:47:35;79.30;;;73.67;;
5710;SDS011;61291;52.524;13.422;2023-12-14T05:50:01;74.40;;;69.60;;
5710;SDS011;61291;52.524;13.422;2023-12-14T05:52:26;74.67;;;69.87;;
5710;SDS011;61291;52.524;13.422;2023-12-14T05:54:52;79.07;;;74.00;;
5710;SDS011;61291;52.524;13.422;2023-12-14T05:57:18;75.83;;;70.93;;
5710;SDS011;61291;52.524;13.422;2023-12-14T05:59:43;85.00;;;79.13;;
5710;SDS011;61291;52.524;13.422;2023-12-14T06:02:09;76.03;;;71.13;;
5710;SDS011;61291;52.524;13.422;2023-12-14T06:04:34;78.80;;;73.80;;
5710;SDS011;61291;52.524;13.422;2023-12-14T06:07:00;82.63;;;77.33;;
5710;SDS011;61291;52.524;13.422;2023-12-14T06:09:26;76.17;;;71.40;;
5710;SDS011;61291;52.524;13.422;2023-12-14T06:11:59;72.20;;;67.77;;
5710;SDS011;61291;52.524;13.422;2023-12-14T06:14:25;72.93;;;68.47;;
5710;SDS011;61291;52.524;13.422;2023-12-14T06:16:51;79.63;;;74.73;;
5710;SDS011;61291;52.524;13.422;2023-12-14T06:19:16;82.27;;;77.30;;
5710;SDS011;61291;52.524;13.422;2023-12-14T06:21:42;75.97;;;71.27;;
5710;SDS011;61291;52.524;13.422;2023-12-14T06:24:07;77.50;;;72.70;;
5710;SDS011;61291;52.524;13.422;2023-12-14T06:26:33;78.13;;;73.33;;
5710;SDS011;61291;52.524;13.422;2023-12-14T06:28:58;76.50;;;71.70;;
5710;SDS011;61291;52.524;13.422;2023-12-14T06:31:24;74.83;;;70.30;;
5710;SDS011;61291;52.524;13.422;2023-12-14T06:33:49;78.90;;;74.10;;
5710;SDS011;61291;52.524;13.422;2023-12-14T06:36:18;79.07;;;74.27;;
5710;SDS011;61291;52.524;13.422;2023-12-14T06:38:44;74.60;;;70.10;;
5710;SDS011;61291;52.524;13.422;2023-12-14T06:41:19;76.50;;;71.70;;
5710;SDS011;61291;52.524;13.422;2023-12-14T06:43:45;73.27;;;68.77;;
5710;SDS011;61291;52.524;13.422;2023-12-14T06:46:11;69.20;;;64.90;;
5710;SDS011;61291;52.524;13.422;2023-12-14T06:48:36;72.47;;;67.97;;
5710;SDS011;61291;52.524;13.422;2023-12-14T06:51:02;75.03;;;70.43;;
5710;SDS011;61291;52.524;13.422;2023-12-14T06:53:27;75.30;;;70.70;;
5710;SDS011;61291;52.524;13.422;2023-12-14T06:55:54;78.00;;;73.30;;
5710;SDS011;61291;52.524;13.422;2023-12-14T06:58:20;71.93;;;67.40;;
5710;SDS011;61291;52.524;13.422;2023-12-14T07:00:45;78.87;;;74.07;;
5710;SDS011;61291;52.524;13.422;2023-12-14T07:03:12;75.47;;;70.87;;
5710;SDS011;61291;52.524;13.422;2023-12-14T07:05:38;74.20;;;69.63;;
5710;SDS011;61291;52.524;13.422;2023-12-14T07:08:04;73.03;;;68.63;;
5710;SDS011;61291;52.524;13.422;2023-12-14T07:10:29;81.37;;;76.27;;
5710;SDS011;61291;52.524;13.422;2023-12-14T07:12:55;73.47;;;68.67;;
5710;SDS011;61291;52.524;13.422;2023-12-14T07:15:20;71.77;;;67.17;;
5710;SDS011;61291;52.524;13.422;2023-12-14T07:17:46;80.50;;;75.60;;
5710;SDS011;61291;52.524;13.422;2023-12-14T07:20:11;70.37;;;66.00;;
5710;SDS011;61291;52.524;13.422;2023-12-14T07:22:37;72.80;;;68.20;;
5710;SDS011;61291;52.524;13.422;2023-12-14T07:25:03;74.70;;;70.00;;
5710;SDS011;61291;52.524;13.422;2023-12-14T07:27:29;76.80;;;71.80;;
5710;SDS011;61291;52.524;13.422;2023-12-14T07:29:55;80.53;;;75.30;;
5710;SDS011;61291;52.524;13.422;2023-12-14T07:32:20;85.60;;;79.90;;
5710;SDS011;61291;52.524;13.422;2023-12-14T07:34:46;76.57;;;71.40;;
5710;SDS011;61291;52.524;13.422;2023-12-14T07:37:12;87.63;;;82.00;;
5710;SDS011;61291;52.524;13.422;2023-12-14T07:39:37;77.83;;;72.83;;
5710;SDS011;61291;52.524;13.422;2023-12-14T07:42:03;78.87;;;73.87;;
5710;SDS011;61291;52.524;13.422;2023-12-14T07:44:28;73.43;;;68.83;;
5710;SDS011;61291;52.524;13.422;2023-12-14T07:46:55;76.60;;;71.67;;
5710;SDS011;61291;52.524;13.422;2023-12-14T07:49:21;65.70;;;61.38;;
5710;SDS011;61291;52.524;13.422;2023-12-14T07:51:48;89.83;;;84.03;;
5710;SDS011;61291;52.524;13.422;2023-12-14T07:54:14;84.33;;;78.83;;
5710;SDS011;61291;52.524;13.422;2023-12-14T07:56:39;78.67;;;73.53;;
5710;SDS011;61291;52.524;13.422;2023-12-14T07:59:05;78.20;;;73.20;;
5710;SDS011;61291;52.524;13.422;2023-12-14T08:01:32;78.70;;;73.60;;
5710;SDS011;61291;52.524;13.422;2023-12-14T08:04:02;77.30;;;72.33;;
5710;SDS011;61291;52.524;13.422;2023-12-14T08:06:28;77.90;;;72.60;;
5710;SDS011;61291;52.524;13.422;2023-12-14T08:08:56;77.70;;;72.50;;
5710;SDS011;61291;52.524;13.422;2023-12-14T08:11:25;77.07;;;71.67;;
5710;SDS011;61291;52.524;13.422;2023-12-14T08:13:50;78.57;;;73.17;;
5710;SDS011;61291;52.524;13.422;2023-12-14T08:16:16;71.70;;;67.00;;
5710;SDS011;61291;52.524;13.422;2023-12-14T08:18:45;72.13;;;67.27;;
5710;SDS011;61291;52.524;13.422;2023-12-14T08:21:12;83.03;;;76.03;;
5710;SDS011;61291;52.524;13.422;2023-12-14T08:23:37;77.10;;;71.70;;
5710;SDS011;61291;52.524;13.422;2023-12-14T08:26:03;79.50;;;74.20;;
5710;SDS011;61291;52.524;13.422;2023-12-14T08:28:28;82.30;;;76.80;;
5710;SDS011;61291;52.524;13.422;2023-12-14T08:30:54;73.70;;;68.80;;
5710;SDS011;61291;52.524;13.422;2023-12-14T08:33:20;79.97;;;74.63;;
5710;SDS011;61291;52.524;13.422;2023-12-14T08:35:46;75.90;;;70.90;;
5710;SDS011;61291;52.524;13.422;2023-12-14T08:38:11;74.80;;;69.90;;
5710;SDS011;61291;52.524;13.422;2023-12-14T08:40:37;73.47;;;68.77;;
5710;SDS011;61291;52.524;13.422;2023-12-14T08:43:04;68.03;;;63.37;;
5710;SDS011;61291;52.524;13.422;2023-12-14T08:45:29;75.60;;;70.67;;
5710;SDS011;61291;52.524;13.422;2023-12-14T08:47:55;75.07;;;70.07;;
5710;SDS011;61291;52.524;13.422;2023-12-14T08:50:20;71.40;;;66.60;;
5710;SDS011;61291;52.524;13.422;2023-12-14T08:52:47;78.50;;;73.30;;
5710;SDS011;61291;52.524;13.422;2023-12-14T08:55:13;80.20;;;73.40;;
5710;SDS011;61291;52.524;13.422;2023-12-14T08:57:39;80.07;;;74.63;;
5710;SDS011;61291;52.524;13.422;2023-12-14T09:00:05;82.73;;;77.03;;
5710;SDS011;61291;52.524;13.422;2023-12-14T09:02:31;78.43;;;73.30;;
5710;SDS011;61291;52.524;13.422;2023-12-14T09:04:57;79.87;;;74.67;;
5710;SDS011;61291;52.524;13.422;2023-12-14T09:07:23;87.63;;;81.70;;
5710;SDS011;61291;52.524;13.422;2023-12-14T09:09:48;80.47;;;75.27;;
5710;SDS011;61291;52.524;13.422;2023-12-14T09:12:14;79.23;;;74.00;;
5710;SDS011;61291;52.524;13.422;2023-12-14T09:14:39;79.10;;;73.80;;
5710;SDS011;61291;52.524;13.422;2023-12-14T09:17:05;81.03;;;75.67;;
5710;SDS011;61291;52.524;13.422;2023-12-14T09:19:30;82.30;;;76.90;;
5710;SDS011;61291;52.524;13.422;2023-12-14T09:21:59;84.90;;;79.40;;
5710;SDS011;61291;52.524;13.422;2023-12-14T09:24:24;85.27;;;79.77;;
5710;SDS011;61291;52.524;13.422;2023-12-14T09:26:50;68.00;;;63.30;;
5710;SDS011;61291;52.524;13.422;2023-12-14T09:29:15;88.00;;;82.10;;
5710;SDS011;61291;52.524;13.422;2023-12-14T09:31:42;79.50;;;74.27;;
5710;SDS011;61291;52.524;13.422;2023-12-14T09:34:08;90.00;;;84.30;;
5710;SDS011;61291;52.524;13.422;2023-12-14T09:36:34;86.80;;;81.10;;
5710;SDS011;61291;52.524;13.422;2023-12-14T09:39:00;88.07;;;82.33;;
5710;SDS011;61291;52.524;13.422;2023-12-14T09:41:25;86.40;;;80.70;;
5710;SDS011;61291;52.524;13.422;2023-12-14T09:43:51;83.63;;;77.77;;
5710;SDS011;61291;52.524;13.422;2023-12-14T09:46:17;88.87;;;83.07;;
5710;SDS011;61291;52.524;13.422;2023-12-14T09:48:43;88.97;;;82.97;;
5710;SDS011;61291;52.524;13.422;2023-12-14T09:51:10;87.17;;;80.97;;
5710;SDS011;61291;52.524;13.422;2023-12-14T09:53:37;92.47;;;86.43;;
5710;SDS011;61291;52.524;13.422;2023-12-14T09:56:02;97.03;;;89.83;;
5710;SDS011;61291;52.524;13.422;2023-12-14T09:58:31;92.03;;;85.13;;
5710;SDS011;61291;52.524;13.422;2023-12-14T10:00:58;96.07;;;89.30;;
5710;SDS011;61291;52.524;13.422;2023-12-14T10:03:26;95.13;;;88.53;;
5710;SDS011;61291;52.524;13.422;2023-12-14T10:05:53;95.27;;;87.10;;
5710;SDS011;61291;52.524;13.422;2023-12-14T10:08:20;94.83;;;87.93;;
5710;SDS011;61291;52.524;13.422;2023-12-14T10:10:47;95.43;;;88.33;;
5710;SDS011;61291;52.524;13.422;2023-12-14T10:13:14;103.80;;;95.40;;
5710;SDS011;61291;52.524;13.422;2023-12-14T10:15:43;96.53;;;88.67;;
5710;SDS011;61291;52.524;13.422;2023-12-14T10:18:09;107.07;;;97.13;;
5710;SDS011;61291;52.524;13.422;2023-12-14T10:20:35;100.20;;;92.10;;
5710;SDS011;61291;52.524;13.422;2023-12-14T10:23:06;82.18;;;74.57;;
5710;SDS011;61291;52.524;13.422;2023-12-14T10:25:32;99.23;;;90.70;;
5710;SDS011;61291;52.524;13.422;2023-12-14T10:27:58;99.90;;;91.23;;
5710;SDS011;61291;52.524;13.422;2023-12-14T10:30:25;101.97;;;93.60;;
5710;SDS011;61291;52.524;13.422;2023-12-14T10:32:50;102.67;;;93.80;;
5710;SDS011;61291;52.524;13.422;2023-12-14T10:35:16;104.70;;;95.90;;
5710;SDS011;61291;52.524;13.422;2023-12-14T10:37:42;100.37;;;92.27;;
5710;SDS011;61291;52.524;13.422;2023-12-14T10:40:11;102.17;;;93.17;;
5710;SDS011;61291;52.524;13.422;2023-12-14T10:42:39;96.70;;;88.20;;
5710;SDS011;61291;52.524;13.422;2023-12-14T10:45:08;100.37;;;91.97;;
5710;SDS011;61291;52.524;13.422;2023-12-14T10:47:38;103.70;;;95.33;;
5710;SDS011;61291;52.524;13.422;2023-12-14T10:50:07;96.37;;;88.13;;
5710;SDS011;61291;52.524;13.422;2023-12-14T10:52:36;93.17;;;86.00;;
5710;SDS011;61291;52.524;13.422;2023-12-14T10:55:04;90.40;;;82.93;;
5710;SDS011;61291;52.524;13.422;2023-12-14T10:57:33;97.83;;;90.03;;
5710;SDS011;61291;52.524;13.422;2023-12-14T10:59:59;93.10;;;85.60;;
5710;SDS011;61291;52.524;13.422;2023-12-14T11:02:26;92.80;;;85.07;;
5710;SDS011;61291;52.524;13.422;2023-12-14T11:05:00;95.30;;;87.50;;
5710;SDS011;61291;52.524;13.422;2023-12-14T11:07:43;92.13;;;84.77;;
5710;SDS011;61291;52.524;13.422;2023-12-14T11:10:11;98.07;;;89.87;;
5710;SDS011;61291;52.524;13.422;2023-12-14T11:12:37;91.20;;;83.73;;
5710;SDS011;61291;52.524;13.422;2023-12-14T11:15:05;93.27;;;85.47;;
5710;SDS011;61291;52.524;13.422;2023-12-14T11:17:31;95.83;;;87.57;;
5710;SDS011;61291;52.524;13.422;2023-12-14T11:20:13;95.97;;;87.97;;
5710;SDS011;61291;52.524;13.422;2023-12-14T11:22:51;92.93;;;85.13;;
5710;SDS011;61291;52.524;13.422;2023-12-14T11:25:20;92.90;;;85.10;;
5710;SDS011;61291;52.524;13.422;2023-12-14T11:27:48;87.20;;;80.03;;
5710;SDS011;61291;52.524;13.422;2023-12-14T11:30:14;91.77;;;83.73;;
5710;SDS011;61291;52.524;13.422;2023-12-14T11:32:41;92.63;;;85.13;;
5710;SDS011;61291;52.524;13.422;2023-12-14T11:35:07;88.53;;;81.03;;
5710;SDS011;61291;52.524;13.422;2023-12-14T11:37:35;85.43;;;78.03;;
5710;SDS011;61291;52.524;13.422;2023-12-14T11:40:01;86.60;;;79.33;;
5710;SDS011;61291;52.524;13.422;2023-12-14T11:42:30;96.33;;;87.93;;
5710;SDS011;61291;52.524;13.422;2023-12-14T11:44:56;86.33;;;79.07;;
5710;SDS011;61291;52.524;13.422;2023-12-14T11:47:22;91.83;;;84.37;;
5710;SDS011;61291;52.524;13.422;2023-12-14T11:49:47;87.40;;;80.47;;
5710;SDS011;61291;52.524;13.422;2023-12-14T11:52:13;100.47;;;92.33;;
5710;SDS011;61291;52.524;13.422;2023-12-14T11:54:39;96.83;;;89.23;;
5710;SDS011;61291;52.524;13.422;2023-12-14T11:57:04;96.17;;;88.47;;
5710;SDS011;61291;52.524;13.422;2023-12-14T11:59:33;93.23;;;85.63;;
5710;SDS011;61291;52.524;13.422;2023-12-14T12:02:00;94.57;;;87.20;;
5710;SDS011;61291;52.524;13.422;2023-12-14T12:04:26;90.10;;;83.00;;
5710;SDS011;61291;52.524;13.422;2023-12-14T12:06:59;94.37;;;86.67;;
5710;SDS011;61291;52.524;13.422;2023-12-14T12:09:36;95.27;;;87.57;;
5710;SDS011;61291;52.524;13.422;2023-12-14T12:12:09;92.13;;;84.63;;
5710;SDS011;61291;52.524;13.422;2023-12-14T12:14:37;93.70;;;86.10;;
5710;SDS011;61291;52.524;13.422;2023-12-14T12:17:04;95.47;;;87.30;;
5710;SDS011;61291;52.524;13.422;2023-12-14T12:19:33;92.20;;;85.00;;
5710;SDS011;61291;52.524;13.422;2023-12-14T12:22:00;81.23;;;74.67;;
5710;SDS011;61291;52.524;13.422;2023-12-14T12:24:26;83.23;;;76.63;;
5710;SDS011;61291;52.524;13.422;2023-12-14T12:26:52;83.57;;;76.77;;
5710;SDS011;61291;52.524;13.422;2023-12-14T12:29:18;72.03;;;65.82;;
5710;SDS011;61291;52.524;13.422;2023-12-14T12:31:43;90.53;;;83.10;;
5710;SDS011;61291;52.524;13.422;2023-12-14T12:34:10;85.37;;;78.33;;
5710;SDS011;61291;52.524;13.422;2023-12-14T12:36:36;89.00;;;81.90;;
5710;SDS011;61291;52.524;13.422;2023-12-14T12:39:01;92.83;;;85.47;;
5710;SDS011;61291;52.524;13.422;2023-12-14T12:41:28;88.97;;;81.77;;
5710;SDS011;61291;52.524;13.422;2023-12-14T12:43:53;94.60;;;87.10;;
5710;SDS011;61291;52.524;13.422;2023-12-14T12:46:19;98.47;;;90.03;;
5710;SDS011;61291;52.524;13.422;2023-12-14T12:48:44;102.50;;;94.23;;
5710;SDS011;61291;52.524;13.422;2023-12-14T12:51:11;88.97;;;81.73;;
5710;SDS011;61291;52.524;13.422;2023-12-14T12:53:37;85.10;;;78.40;;
5710;SDS011;61291;52.524;13.422;2023-12-14T12:56:03;87.27;;;80.47;;
5710;SDS011;61291;52.524;13.422;2023-12-14T12:58:29;91.37;;;84.00;;
5710;SDS011;61291;52.524;13.422;2023-12-14T13:00:54;83.87;;;77.23;;
5710;SDS011;61291;52.524;13.422;2023-12-14T13:03:20;89.13;;;81.03;;
5710;SDS011;61291;52.524;13.422;2023-12-14T13:05:46;89.00;;;81.80;;
5710;SDS011;61291;52.524;13.422;2023-12-14T13:08:12;87.73;;;80.97;;
5710;SDS011;61291;52.524;13.422;2023-12-14T13:10:38;88.07;;;81.15;;
5710;SDS011;61291;52.524;13.422;2023-12-14T13:13:04;89.80;;;82.87;;
5710;SDS011;61291;52.524;13.422;2023-12-14T13:15:31;91.23;;;83.30;;
5710;SDS011;61291;52.524;13.422;2023-12-14T13:17:57;91.50;;;84.10;;
5710;SDS011;61291;52.524;13.422;2023-12-14T13:20:23;87.30;;;80.20;;
5710;SDS011;61291;52.524;13.422;2023-12-14T13:22:49;88.90;;;81.50;;
5710;SDS011;61291;52.524;13.422;2023-12-14T13:25:15;73.60;;;67.20;;
5710;SDS011;61291;52.524;13.422;2023-12-14T13:27:41;88.70;;;81.50;;
5710;SDS011;61291;52.524;13.422;2023-12-14T13:30:08;94.77;;;86.53;;
5710;SDS011;61291;52.524;13.422;2023-12-14T13:32:34;86.07;;;79.07;;
5710;SDS011;61291;52.524;13.422;2023-12-14T13:34:59;88.97;;;81.63;;
5710;SDS011;61291;52.524;13.422;2023-12-14T13:37:25;92.80;;;85.50;;
5710;SDS011;61291;52.524;13.422;2023-12-14T13:39:50;97.03;;;89.67;;
5710;SDS011;61291;52.524;13.422;2023-12-14T13:42:17;89.87;;;83.13;;
5710;SDS011;61291;52.524;13.422;2023-12-14T13:44:44;91.43;;;83.80;;
5710;SDS011;61291;52.524;13.422;2023-12-14T13:47:09;99.17;;;91.50;;
5710;SDS011;61291;52.524;13.422;2023-12-14T13:49:35;94.97;;;87.83;;
5710;SDS011;61291;52.524;13.422;2023-12-14T13:52:01;92.80;;;85.73;;
5710;SDS011;61291;52.524;13.422;2023-12-14T13:54:26;96.13;;;88.93;;
5710;SDS011;61291;52.524;13.422;2023-12-14T13:56:52;93.10;;;86.20;;
5710;SDS011;61291;52.524;13.422;2023-12-14T13:59:18;86.50;;;80.00;;
5710;SDS011;61291;52.524;13.422;2023-12-14T14:01:44;89.13;;;82.23;;
5710;SDS011;61291;52.524;13.422;2023-12-14T14:04:09;82.57;;;76.17;;
5710;SDS011;61291;52.524;13.422;2023-12-14T14:06:35;88.20;;;81.43;;
5710;SDS011;61291;52.524;13.422;2023-12-14T14:09:00;68.85;;;63.28;;
5710;SDS011;61291;52.524;13.422;2023-12-14T14:11:26;80.70;;;74.33;;
5710;SDS011;61291;52.524;13.422;2023-12-14T14:13:51;83.77;;;76.93;;
5710;SDS011;61291;52.524;13.422;2023-12-14T14:16:17;89.27;;;82.17;;
5710;SDS011;61291;52.524;13.422;2023-12-14T14:18:42;85.63;;;78.77;;